Pagrindinis puslapis
METAR-TAF:

METAR-TAF

Oro uostai :

Ljungbyhed, Švedija

platuma: 56-04N, ilguma: 013-12E, Aukštis: 43 m

Dabartinis oras

Ataskaita buvo paskelbta 34 minutes, ne 12:50 UTC
Vėjas 9 kt iš Rytų/Pietryčių
Temperatūra 24°C
Drėgmė 50%
Slėgis 1024 hPa
Matomumas 10 km arba daugiau
nėra debesų žemiau 1500 m ir nėra kamuolinių lietaus debesų

METAR: ESTL 111250Z 11009KT CAVOK 24/13 Q1024

Laikas: 15:24 (13:24 UTC)

Prognozė

Ataskaita buvo paskelbta 2 valandos ir 25 minutes, ne 10:59 UTC
Prognozė galioja nuo 11 metu 12 UTC su 11 metu 15 UTC
Vėjas 8 kt iš Rytų/Pietryčių
Matomumas 10 km arba daugiau
nėra debesų žemiau 1500 m ir nėra kamuolinių lietaus debesų

TAF: ESTL 111059Z 1112/1115 12008KT CAVOK

Orai ataskaitas ir orų prognozės (METAR, TAF).

turimą stotys yra geltonos ir raudonos taškus žemėlapyje.

Perkelti pele per norėdami pamatyti stoties vardą.

Tada spustelėkite, norėdami matyti oro stebėjimo ir prognozės.

Norėdami pakeisti žemėlapį: spustelėkite ant žalios mygtukų su juodo kryžiaus žemyn,; žalią mygtuką su brūkšneliu, jei norite nutolinti; arba žalių rodyklių gretimoms žemėlapius.


METAR-TAF: